Custom Search

Airport METAR Reports

 

YMAV - Avalon Airport, Australia
Distance from station: 0 0km
Updated: 27/05/2017 23:30
Heavy rain, Showers, Mostly cloudy
Heavy rain, Showers, Mostly cloudy
 Wind from W
Wind: W 50 km/h, Gust: 76 km/h
Temperature: 10°C
Wind Chill: 6°C
Dew Point: 9°C
Humidity: 94%
Barometer: 1008 hPa
Summary: Heavy rain, Showers
Clouds: Mostly cloudy
Visibility: 2 km
Cloud details: Mostly cloudy 975 m
Mostly cloudy 2896 m
2017/05/27 13:30 YMAV 271330Z AUTO 27027G41KT 2300 +SHRA BKN032 BKN095 10/09 Q1008
YMML - Melbourne Intl A, Australia
Distance from station: NE 50km
Updated: 27/05/2017 23:30
Nearby showers, Partly cloudy
Nearby showers, Partly cloudy
 Wind from N
Wind: N 37 km/h
Temperature: 13°C
Dew Point: 10°C
Humidity: 82%
Barometer: 1008 hPa
Summary: Nearby Showers
Clouds: Partly cloudy
Visibility: 10 km
2017/05/27 13:30 YMML 271330Z 01020KT 9999 VCSH NSC 13/10 Q1008 INTER 1345/1630 5000 SHRA BKN025 FM1330 MOD/SEV TURB BLW 5000FT
YMEN - Melbourne/Essend, Australia
Distance from station: NE 51km
Updated: 27/05/2017 23:30
Partly cloudy
Partly cloudy
 Wind from N
Wind: N 35 km/h, Gust: 56 km/h
Temperature: 14°C
Dew Point: 11°C
Humidity: 82%
Barometer: 1007 hPa
Clouds: Partly cloudy
Visibility: 10 km
Cloud details: Partly cloudy 2225 m
2017/05/27 13:30 YMEN 271330Z AUTO 01019G30KT 9999 // SCT073 14/11 Q1007
 
YWGT - Wangaratta Arp, Australia
Distance from station: NE 241km
Updated: 27/05/2017 23:00
Clear
Clear
 Wind from calm
Wind: Calm
Temperature: 9°C
Dew Point: 8°C
Humidity: 94%
Barometer: 1013 hPa
Clouds: Clear
Visibility: 10 km
2017/05/27 13:00 YWGT 271300Z AUTO 00000KT 9999 // NCD 09/08 Q1013
YMAY - Albury Airport, Australia
Distance from station: NE 308km
Updated: 27/05/2017 23:23
Mostly cloudy
Mostly cloudy
 Wind from NNE
Wind: NNE 7 km/h
Temperature: 11°C
Dew Point: 11°C
Humidity: 100%
Barometer: 1014 hPa
Clouds: Mostly cloudy
Visibility: 10 km
Cloud details: Partly cloudy 1463 m
Mostly cloudy 1707 m
2017/05/27 13:23 YMAY 271323Z AUTO 03004KT 9999 // SCT048 BKN056 11/11 Q1014
YMTG - Mount Gambier, Australia
Distance from station: W 326km
Updated: 27/05/2017 23:00
Mostly cloudy
Mostly cloudy
 Wind from WNW
Wind: WNW 13 km/h
Temperature: 10°C
Wind Chill: 8°C
Dew Point: 9°C
Humidity: 94%
Barometer: 1008 hPa
Clouds: Mostly cloudy
Visibility: 10 km
Cloud details: Partly cloudy 1311 m
Mostly cloudy 1920 m
2017/05/27 13:00 YMTG 271300Z AUTO 29007KT 9999 // SCT043 BKN063 10/09 Q1008
 
YNAR - Narrandera, Australia
Distance from station: NNE 413km
Updated: 27/05/2017 23:00

 Wind from NE
Wind: NE 7 km/h
Temperature: 9°C
Wind Chill: 8°C
Dew Point: 8°C
Humidity: 94%
Barometer: 1014 hPa
2017/05/27 13:00 YNAR 271300Z AUTO 04004KT //// // ////// 09/08 Q1014
YSWG - Wagga Wagga(Cv/M, Australia
Distance from station: NE 418km
Updated: 27/05/2017 23:00
Clear
Clear
 Wind from E
Wind: E 2 km/h
Temperature: 8°C
Dew Point: 8°C
Humidity: 100%
Barometer: 1015 hPa
Clouds: Clear
Visibility: 10 km
2017/05/27 13:00 YSWG 271300Z AUTO 09001KT 9999 // NCD 08/08 Q1015
YCOM - Cooma Snowy Mtns, Australia
Distance from station: ENE 441km
Updated: 27/05/2017 23:00
Clear
Clear
 Wind from N
Wind: N 17 km/h
Temperature: 7°C
Wind Chill: 4°C
Dew Point: 4°C
Humidity: 81%
Barometer: 1014 hPa
Clouds: Clear
Visibility: 10 km
2017/05/27 13:00 YCOM 271300Z AUTO 36009KT 9999 // NCD 07/04 Q1014
 
YGTH - Griffith Arpt, Australia
Distance from station: NNE 444km
Updated: 27/05/2017 23:00
Clear
Clear
 Wind from calm
Wind: Calm
Temperature: 8°C
Dew Point: 7°C
Humidity: 93%
Barometer: 1014 hPa
Clouds: Clear
Visibility: 10 km
2017/05/27 13:00 YGTH 271300Z AUTO 00000KT 9999 // NCD 08/07 Q1014
YMLT - Launceston Airpo, Australia
Distance from station: SSE 451km
Updated: 27/05/2017 23:31
Rain showers, Mostly cloudy
Rain showers, Mostly cloudy
 Wind from NNW
Wind: NNW 37 km/h, Gust: 57 km/h
Temperature: 12°C
Dew Point: 10°C
Humidity: 88%
Barometer: 1005 hPa
Summary: Rain Showers
Clouds: Mostly cloudy
Visibility: 10 km
Cloud details: Partly cloudy 701 m
Mostly cloudy 1067 m
Mostly cloudy 1463 m
2017/05/27 13:31 YMLT 271331Z AUTO 33020G31KT 9999 SHRA SCT023 BKN035 BKN048 12/10 Q1005
YMIA - Mildura Arpt, Australia
Distance from station: NNW 474km
Updated: 27/05/2017 23:00
Mostly cloudy
Mostly cloudy
 Wind from W
Wind: W 17 km/h
Temperature: 15°C
Dew Point: 8°C
Humidity: 63%
Barometer: 1012 hPa
Clouds: Mostly cloudy
Visibility: 10 km
Cloud details: Mostly cloudy 2316 m
Mostly cloudy 2713 m
Mostly cloudy 3353 m
2017/05/27 13:00 YMIA 271300Z AUTO 27009KT 9999 // BKN076 BKN089 BKN110 15/08 Q1012
 
YMER - Merimbula Arpt, Australia
Distance from station: ENE 494km
Updated: 27/05/2017 23:03

 Wind from calm
Wind: Calm
Temperature: 11°C
Dew Point: 10°C
Humidity: 94%
Barometer: 1013 hPa
Visibility: 10 km
2017/05/27 13:03 YMER 271303Z AUTO 00000KT 9999 // ////// 11/10 Q1013
YSCB - Canberra (civ/Mi, Australia
Distance from station: NE 518km
Updated: 27/05/2017 23:36
Mostly cloudy
Mostly cloudy
 Wind from calm
Wind: Calm
Temperature: 3°C
Dew Point: 3°C
Humidity: 100%
Barometer: 1016 hPa
Clouds: Mostly cloudy
Visibility: 0 km
Cloud details: Mostly cloudy 30 m
2017/05/27 13:36 YSCB 271336Z AUTO 00000KT 0100 // BKN001 03/03 Q1016
YMHB - Hobart/Tasmania, Australia
Distance from station: SSE 590km
Updated: 27/05/2017 23:30
Light rain, Mostly cloudy
Light rain, Mostly cloudy
 Wind from NNW
Wind: NNW 17 km/h
Temperature: 13°C
Dew Point: 10°C
Humidity: 82%
Barometer: 1003 hPa
Summary: Light rain
Clouds: Mostly cloudy
Visibility: 10 km
Cloud details: Mostly cloudy 1676 m
2017/05/27 13:30 YMHB 271330Z 34009KT 9999 -RA BKN055 13/10 Q1003 RF00.0/000.0